sensor_id;sensor_type;location;lat;lon;timestamp;pressure;altitude;pressure_sealevel;temperature;humidity
67697;BME280;54486;51.442;6.778;2023-02-13T00:00:15;103566.72;;;8.76;89.71
67697;BME280;54486;51.442;6.778;2023-02-13T00:02:57;103568.34;;;8.74;89.74
67697;BME280;54486;51.442;6.778;2023-02-13T00:05:24;103558.75;;;8.73;89.40
67697;BME280;54486;51.442;6.778;2023-02-13T00:07:51;103555.31;;;8.74;89.70
67697;BME280;54486;51.442;6.778;2023-02-13T00:10:18;103555.41;;;8.76;89.41
67697;BME280;54486;51.442;6.778;2023-02-13T00:12:45;103552.78;;;8.76;89.77
67697;BME280;54486;51.442;6.778;2023-02-13T00:15:12;103557.91;;;8.74;89.70
67697;BME280;54486;51.442;6.778;2023-02-13T00:17:39;103553.59;;;8.75;89.33
67697;BME280;54486;51.442;6.778;2023-02-13T00:20:08;103547.59;;;8.76;89.59
67697;BME280;54486;51.442;6.778;2023-02-13T00:22:36;103538.88;;;8.75;89.28
67697;BME280;54486;51.442;6.778;2023-02-13T00:25:04;103544.09;;;8.75;89.89
67697;BME280;54486;51.442;6.778;2023-02-13T00:27:31;103547.69;;;8.77;89.25
67697;BME280;54486;51.442;6.778;2023-02-13T00:29:57;103549.44;;;8.78;89.44
67697;BME280;54486;51.442;6.778;2023-02-13T00:32:25;103546.78;;;8.77;89.78
67697;BME280;54486;51.442;6.778;2023-02-13T00:34:51;103539.00;;;8.78;89.63
67697;BME280;54486;51.442;6.778;2023-02-13T00:37:18;103540.66;;;8.76;89.92
67697;BME280;54486;51.442;6.778;2023-02-13T00:39:45;103542.28;;;8.74;89.72
67697;BME280;54486;51.442;6.778;2023-02-13T00:42:12;103540.53;;;8.73;89.74
67697;BME280;54486;51.442;6.778;2023-02-13T00:44:39;103542.28;;;8.74;89.87
67697;BME280;54486;51.442;6.778;2023-02-13T00:47:06;103535.34;;;8.73;89.72
67697;BME280;54486;51.442;6.778;2023-02-13T00:49:34;103546.81;;;8.78;89.39
67697;BME280;54486;51.442;6.778;2023-02-13T00:52:01;103540.53;;;8.73;90.19
67697;BME280;54486;51.442;6.778;2023-02-13T00:54:28;103538.75;;;8.72;89.95
67697;BME280;54486;51.442;6.778;2023-02-13T00:56:55;103535.34;;;8.73;90.06
67697;BME280;54486;51.442;6.778;2023-02-13T00:59:22;103542.28;;;8.74;90.05
67697;BME280;54486;51.442;6.778;2023-02-13T01:01:49;103535.19;;;8.70;90.33
67697;BME280;54486;51.442;6.778;2023-02-13T01:04:16;103544.09;;;8.75;90.08
67697;BME280;54486;51.442;6.778;2023-02-13T01:06:43;103543.19;;;8.75;90.19
67697;BME280;54486;51.442;6.778;2023-02-13T01:09:09;103543.16;;;8.73;89.84
67697;BME280;54486;51.442;6.778;2023-02-13T01:11:37;103545.06;;;8.77;89.33
67697;BME280;54486;51.442;6.778;2023-02-13T01:14:04;103537.25;;;8.77;89.30
67697;BME280;54486;51.442;6.778;2023-02-13T01:16:31;103538.13;;;8.78;89.27
67697;BME280;54486;51.442;6.778;2023-02-13T01:18:58;103538.13;;;8.78;88.74
67697;BME280;54486;51.442;6.778;2023-02-13T01:21:25;103541.75;;;8.81;88.72
67697;BME280;54486;51.442;6.778;2023-02-13T01:23:52;103541.06;;;8.85;87.85
67697;BME280;54486;51.442;6.778;2023-02-13T01:26:19;103539.16;;;8.81;87.88
67697;BME280;54486;51.442;6.778;2023-02-13T01:28:47;103542.28;;;8.74;88.14
67697;BME280;54486;51.442;6.778;2023-02-13T01:31:14;103540.66;;;8.76;87.93
67697;BME280;54486;51.442;6.778;2023-02-13T01:33:41;103537.53;;;8.83;87.00
67697;BME280;54486;51.442;6.778;2023-02-13T01:36:09;103534.78;;;8.80;87.18
67697;BME280;54486;51.442;6.778;2023-02-13T01:38:37;103534.34;;;8.71;87.97
67697;BME280;54486;51.442;6.778;2023-02-13T01:41:05;103535.34;;;8.73;87.80
67697;BME280;54486;51.442;6.778;2023-02-13T01:46:16;103528.47;;;8.75;87.73
67697;BME280;54486;51.442;6.778;2023-02-13T01:48:45;103528.47;;;8.75;87.57
67697;BME280;54486;51.442;6.778;2023-02-13T01:51:17;103524.91;;;8.73;87.35
67697;BME280;54486;51.442;6.778;2023-02-13T01:53:48;103523.75;;;8.67;87.84
67697;BME280;54486;51.442;6.778;2023-02-13T01:56:42;103524.53;;;8.64;87.51
67697;BME280;54486;51.442;6.778;2023-02-13T01:59:12;103527.13;;;8.64;87.87
67697;BME280;54486;51.442;6.778;2023-02-13T02:01:40;103517.53;;;8.63;87.90
67697;BME280;54486;51.442;6.778;2023-02-13T02:04:17;103526.28;;;8.65;87.98
67697;BME280;54486;51.442;6.778;2023-02-13T02:06:51;103518.47;;;8.65;87.70
67697;BME280;54486;51.442;6.778;2023-02-13T02:09:22;103518.28;;;8.61;87.74
67697;BME280;54486;51.442;6.778;2023-02-13T02:14:25;103519.19;;;8.61;87.74
67697;BME280;54486;51.442;6.778;2023-02-13T02:16:53;103513.97;;;8.61;88.20
67697;BME280;54486;51.442;6.778;2023-02-13T02:32:56;103527.41;;;8.51;88.44
67697;BME280;54486;51.442;6.778;2023-02-13T02:41:04;103518.91;;;8.55;88.55
67697;BME280;54486;51.442;6.778;2023-02-13T02:46:17;103519.03;;;8.58;87.98
67697;BME280;54486;51.442;6.778;2023-02-13T02:48:56;103515.31;;;8.53;88.27
67697;BME280;54486;51.442;6.778;2023-02-13T02:52:23;103518.75;;;8.52;88.17
67697;BME280;54486;51.442;6.778;2023-02-13T02:54:45;103517.75;;;8.48;88.53
67697;BME280;54486;51.442;6.778;2023-02-13T02:57:47;103518.59;;;8.49;88.16
67697;BME280;54486;51.442;6.778;2023-02-13T03:00:36;103523.53;;;8.43;88.83
67697;BME280;54486;51.442;6.778;2023-02-13T03:03:24;103522.59;;;8.41;88.80
67697;BME280;54486;51.442;6.778;2023-02-13T03:06:35;103530.38;;;8.41;88.50
67697;BME280;54486;51.442;6.778;2023-02-13T03:09:04;103521.91;;;8.45;88.98
67697;BME280;54486;51.442;6.778;2023-02-13T03:11:52;103517.59;;;8.45;88.54
67697;BME280;54486;51.442;6.778;2023-02-13T03:14:39;103515.69;;;8.41;88.38
67697;BME280;54486;51.442;6.778;2023-02-13T03:17:08;103519.19;;;8.42;88.73
67697;BME280;54486;51.442;6.778;2023-02-13T03:28:25;103517.78;;;8.31;88.83
67697;BME280;54486;51.442;6.778;2023-02-13T03:31:16;103521.88;;;8.26;88.70
67697;BME280;54486;51.442;6.778;2023-02-13T03:33:57;103524.53;;;8.27;88.79
67697;BME280;54486;51.442;6.778;2023-02-13T03:36:37;103517.34;;;8.22;89.19
67697;BME280;54486;51.442;6.778;2023-02-13T03:42:00;103526.94;;;8.23;88.96
67697;BME280;54486;51.442;6.778;2023-02-13T03:44:31;103518.84;;;8.17;89.47
67697;BME280;54486;51.442;6.778;2023-02-13T03:47:01;103517.78;;;8.31;88.19
67697;BME280;54486;51.442;6.778;2023-02-13T03:49:37;103522.53;;;8.22;89.34
67697;BME280;54486;51.442;6.778;2023-02-13T03:55:20;103526.09;;;8.24;88.79
67697;BME280;54486;51.442;6.778;2023-02-13T03:58:08;103525.00;;;8.19;88.83
67697;BME280;54486;51.442;6.778;2023-02-13T04:00:56;103533.06;;;8.25;88.73
67697;BME280;54486;51.442;6.778;2023-02-13T04:03:26;103533.84;;;8.22;89.38
67697;BME280;54486;51.442;6.778;2023-02-13T04:05:57;103532.78;;;8.19;89.30
67697;BME280;54486;51.442;6.778;2023-02-13T04:08:26;103531.00;;;8.18;89.42
67697;BME280;54486;51.442;6.778;2023-02-13T04:10:56;103529.38;;;8.20;88.99
67697;BME280;54486;51.442;6.778;2023-02-13T04:13:31;103524.78;;;8.14;89.46
67697;BME280;54486;51.442;6.778;2023-02-13T04:16:08;103527.19;;;8.10;89.78
67697;BME280;54486;51.442;6.778;2023-02-13T04:18:36;103524.63;;;8.11;90.13
67697;BME280;54486;51.442;6.778;2023-02-13T04:21:05;103522.16;;;8.14;89.77
67697;BME280;54486;51.442;6.778;2023-02-13T04:23:33;103525.81;;;8.18;89.37
67697;BME280;54486;51.442;6.778;2023-02-13T04:26:03;103522.25;;;8.16;89.81
67697;BME280;54486;51.442;6.778;2023-02-13T04:28:32;103523.19;;;8.18;89.42
67697;BME280;54486;51.442;6.778;2023-02-13T04:30:58;103521.44;;;8.17;89.64
67697;BME280;54486;51.442;6.778;2023-02-13T04:33:26;103521.50;;;8.18;90.03
67697;BME280;54486;51.442;6.778;2023-02-13T04:35:53;103528.41;;;8.18;89.86
67697;BME280;54486;51.442;6.778;2023-02-13T04:38:20;103531.00;;;8.18;89.61
67697;BME280;54486;51.442;6.778;2023-02-13T04:40:47;103531.00;;;8.18;89.73
67697;BME280;54486;51.442;6.778;2023-02-13T04:43:13;103525.66;;;8.15;90.03
67697;BME280;54486;51.442;6.778;2023-02-13T04:45:40;103531.00;;;8.18;89.54
67697;BME280;54486;51.442;6.778;2023-02-13T04:48:08;103528.13;;;8.12;90.25
67697;BME280;54486;51.442;6.778;2023-02-13T04:50:35;103529.06;;;8.14;90.03
67697;BME280;54486;51.442;6.778;2023-02-13T04:53:02;103527.47;;;8.16;90.00
67697;BME280;54486;51.442;6.778;2023-02-13T04:55:29;103521.34;;;8.15;89.98
67697;BME280;54486;51.442;6.778;2023-02-13T04:57:56;103520.59;;;8.18;89.95
67697;BME280;54486;51.442;6.778;2023-02-13T05:00:25;103523.16;;;8.16;90.36
67697;BME280;54486;51.442;6.778;2023-02-13T05:02:53;103523.59;;;8.08;90.54
67697;BME280;54486;51.442;6.778;2023-02-13T05:05:20;103521.06;;;8.09;90.46
67697;BME280;54486;51.442;6.778;2023-02-13T05:07:48;103513.31;;;8.11;90.36
67697;BME280;54486;51.442;6.778;2023-02-13T05:10:15;103517.66;;;8.10;90.57
67697;BME280;54486;51.442;6.778;2023-02-13T05:12:41;103515.13;;;8.12;90.51
67697;BME280;54486;51.442;6.778;2023-02-13T05:15:09;103511.72;;;8.13;90.57
67697;BME280;54486;51.442;6.778;2023-02-13T05:17:35;103508.44;;;8.17;90.51
67697;BME280;54486;51.442;6.778;2023-02-13T05:20:03;103517.66;;;8.10;90.74
67697;BME280;54486;51.442;6.778;2023-02-13T05:22:30;103514.31;;;8.13;90.43
67697;BME280;54486;51.442;6.778;2023-02-13T05:25:15;103512.59;;;8.13;90.72
67697;BME280;54486;51.442;6.778;2023-02-13T05:27:42;103506.50;;;8.13;90.46
67697;BME280;54486;51.442;6.778;2023-02-13T05:30:09;103509.03;;;8.11;90.42
67697;BME280;54486;51.442;6.778;2023-02-13T05:32:36;103514.22;;;8.11;90.79
67697;BME280;54486;51.442;6.778;2023-02-13T05:35:04;103516.91;;;8.13;90.72
67697;BME280;54486;51.442;6.778;2023-02-13T05:37:31;103507.97;;;8.08;90.46
67697;BME280;54486;51.442;6.778;2023-02-13T05:39:58;103514.03;;;8.07;90.47
67697;BME280;54486;51.442;6.778;2023-02-13T05:42:25;103504.28;;;8.03;91.03
67697;BME280;54486;51.442;6.778;2023-02-13T05:44:51;103503.34;;;8.01;90.77
67697;BME280;54486;51.442;6.778;2023-02-13T05:47:19;103504.91;;;7.97;91.43
67697;BME280;54486;51.442;6.778;2023-02-13T05:49:46;103503.91;;;7.95;91.65
67697;BME280;54486;51.442;6.778;2023-02-13T05:52:13;103497.91;;;7.96;91.26
67697;BME280;54486;51.442;6.778;2023-02-13T05:54:39;103503.88;;;7.93;91.00
67697;BME280;54486;51.442;6.778;2023-02-13T05:57:06;103494.81;;;7.85;91.37
67697;BME280;54486;51.442;6.778;2023-02-13T05:59:33;103505.16;;;7.84;91.51
67697;BME280;54486;51.442;6.778;2023-02-13T06:02:00;103502.16;;;7.76;91.53
67697;BME280;54486;51.442;6.778;2023-02-13T06:04:27;103502.63;;;7.68;92.66
67697;BME280;54486;51.442;6.778;2023-02-13T06:06:55;103495.44;;;7.62;92.34
67697;BME280;54486;51.442;6.778;2023-02-13T06:09:22;103501.66;;;7.48;93.64
67697;BME280;54486;51.442;6.778;2023-02-13T06:11:48;103497.97;;;7.43;94.02
67697;BME280;54486;51.442;6.778;2023-02-13T06:14:15;103498.38;;;7.34;93.91
67697;BME280;54486;51.442;6.778;2023-02-13T06:16:42;103495.44;;;7.27;94.37
67697;BME280;54486;51.442;6.778;2023-02-13T06:19:08;103495.03;;;7.19;95.46
67697;BME280;54486;51.442;6.778;2023-02-13T06:21:36;103493.03;;;7.14;96.02
67697;BME280;54486;51.442;6.778;2023-02-13T06:24:08;103493.84;;;7.13;95.52
67697;BME280;54486;51.442;6.778;2023-02-13T06:26:35;103497.19;;;7.10;94.86
67697;BME280;54486;51.442;6.778;2023-02-13T06:29:02;103490.13;;;7.08;95.29
67697;BME280;54486;51.442;6.778;2023-02-13T06:31:31;103493.22;;;7.01;94.83
67697;BME280;54486;51.442;6.778;2023-02-13T06:33:58;103500.13;;;7.00;95.05
67697;BME280;54486;51.442;6.778;2023-02-13T06:36:24;103493.88;;;6.97;96.02
67697;BME280;54486;51.442;6.778;2023-02-13T06:38:51;103491.63;;;6.86;95.86
67697;BME280;54486;51.442;6.778;2023-02-13T06:41:18;103491.47;;;6.83;96.10
67697;BME280;54486;51.442;6.778;2023-02-13T06:43:46;103488.72;;;6.80;95.67
67697;BME280;54486;51.442;6.778;2023-02-13T06:46:12;103499.59;;;6.73;95.37
67697;BME280;54486;51.442;6.778;2023-02-13T06:48:39;103489.03;;;6.70;95.46
67697;BME280;54486;51.442;6.778;2023-02-13T06:51:06;103493.22;;;6.67;95.54
67697;BME280;54486;51.442;6.778;2023-02-13T06:53:33;103494.91;;;6.66;95.87
67697;BME280;54486;51.442;6.778;2023-02-13T06:56:02;103498.31;;;6.65;95.97
67697;BME280;54486;51.442;6.778;2023-02-13T06:58:30;103492.97;;;6.62;96.27
67697;BME280;54486;51.442;6.778;2023-02-13T07:00:57;103503.34;;;6.62;95.55
67697;BME280;54486;51.442;6.778;2023-02-13T07:03:25;103495.41;;;6.59;95.83
67697;BME280;54486;51.442;6.778;2023-02-13T07:05:52;103486.31;;;6.51;95.86
67697;BME280;54486;51.442;6.778;2023-02-13T07:08:19;103499.28;;;6.51;95.81
67697;BME280;54486;51.442;6.778;2023-02-13T07:10:46;103501.72;;;6.48;95.45
67697;BME280;54486;51.442;6.778;2023-02-13T07:13:13;103495.41;;;6.43;95.99
67697;BME280;54486;51.442;6.778;2023-02-13T07:15:40;103505.34;;;6.35;95.58
67697;BME280;54486;51.442;6.778;2023-02-13T07:18:08;103511.13;;;6.30;96.37
67697;BME280;54486;51.442;6.778;2023-02-13T07:20:35;103511.13;;;6.30;96.51
67697;BME280;54486;51.442;6.778;2023-02-13T07:23:03;103516.94;;;6.26;96.66
67697;BME280;54486;51.442;6.778;2023-02-13T07:25:30;103515.81;;;6.21;96.31
67697;BME280;54486;51.442;6.778;2023-02-13T07:28:01;103517.78;;;6.25;95.85
67697;BME280;54486;51.442;6.778;2023-02-13T07:30:28;103517.44;;;6.19;96.56
67697;BME280;54486;51.442;6.778;2023-02-13T07:33:02;103519.94;;;6.17;96.69
67697;BME280;54486;51.442;6.778;2023-02-13T07:38:29;103523.16;;;6.13;97.55
67697;BME280;54486;51.442;6.778;2023-02-13T07:40:57;103526.19;;;6.21;97.71
67697;BME280;54486;51.442;6.778;2023-02-13T07:43:25;103527.25;;;6.24;97.58
67697;BME280;54486;51.442;6.778;2023-02-13T07:45:53;103530.47;;;6.20;97.61
67697;BME280;54486;51.442;6.778;2023-02-13T07:48:23;103529.72;;;6.23;97.78
67697;BME280;54486;51.442;6.778;2023-02-13T07:50:53;103531.38;;;6.21;98.06
67697;BME280;54486;51.442;6.778;2023-02-13T07:53:20;103535.09;;;6.26;98.10
67697;BME280;54486;51.442;6.778;2023-02-13T07:55:48;103535.25;;;6.29;98.26
67697;BME280;54486;51.442;6.778;2023-02-13T07:58:15;103531.69;;;6.27;98.74
67697;BME280;54486;51.442;6.778;2023-02-13T08:00:41;103540.59;;;6.32;99.62
67697;BME280;54486;51.442;6.778;2023-02-13T08:03:09;103542.56;;;6.36;99.51
67697;BME280;54486;51.442;6.778;2023-02-13T08:05:36;103542.88;;;6.42;99.95
67697;BME280;54486;51.442;6.778;2023-02-13T08:08:03;103536.25;;;6.47;100.00
67697;BME280;54486;51.442;6.778;2023-02-13T08:10:30;103545.16;;;6.52;99.64
67697;BME280;54486;51.442;6.778;2023-02-13T08:13:18;103536.09;;;6.60;99.64
67697;BME280;54486;51.442;6.778;2023-02-13T08:15:45;103539.72;;;6.64;99.08
67697;BME280;54486;51.442;6.778;2023-02-13T08:18:12;103540.78;;;6.67;99.52
67697;BME280;54486;51.442;6.778;2023-02-13T08:20:39;103536.09;;;6.76;98.89
67697;BME280;54486;51.442;6.778;2023-02-13T08:23:07;103532.09;;;6.83;98.33
67697;BME280;54486;51.442;6.778;2023-02-13T08:25:36;103542.09;;;6.91;97.66
67697;BME280;54486;51.442;6.778;2023-02-13T08:28:03;103532.16;;;7.01;96.62
67697;BME280;54486;51.442;6.778;2023-02-13T08:30:31;103544.81;;;7.11;96.59
67697;BME280;54486;51.442;6.778;2023-02-13T08:32:59;103542.38;;;7.14;96.94
67697;BME280;54486;51.442;6.778;2023-02-13T08:35:26;103543.47;;;7.19;96.38
67697;BME280;54486;51.442;6.778;2023-02-13T08:37:55;103542.88;;;7.24;95.65
67697;BME280;54486;51.442;6.778;2023-02-13T08:40:22;103543.94;;;7.28;95.18
67697;BME280;54486;51.442;6.778;2023-02-13T08:42:51;103552.88;;;7.33;95.87
67697;BME280;54486;51.442;6.778;2023-02-13T08:45:18;103546.03;;;7.35;95.45
67697;BME280;54486;51.442;6.778;2023-02-13T08:47:46;103541.13;;;7.41;94.19
67697;BME280;54486;51.442;6.778;2023-02-13T08:50:13;103548.56;;;7.51;93.22
67697;BME280;54486;51.442;6.778;2023-02-13T08:52:40;103547.25;;;7.59;92.41
67697;BME280;54486;51.442;6.778;2023-02-13T08:55:07;103550.16;;;7.65;92.36
67697;BME280;54486;51.442;6.778;2023-02-13T08:57:34;103549.47;;;7.69;91.54
67697;BME280;54486;51.442;6.778;2023-02-13T09:00:01;103546.22;;;7.73;91.78
67697;BME280;54486;51.442;6.778;2023-02-13T09:02:29;103542.94;;;7.77;92.11
67697;BME280;54486;51.442;6.778;2023-02-13T09:04:56;103547.63;;;7.84;90.54
67697;BME280;54486;51.442;6.778;2023-02-13T09:07:23;103541.88;;;7.91;90.47
67697;BME280;54486;51.442;6.778;2023-02-13T09:09:50;103540.28;;;7.93;90.43
67697;BME280;54486;51.442;6.778;2023-02-13T09:12:19;103544.94;;;8.01;89.88
67697;BME280;54486;51.442;6.778;2023-02-13T09:14:46;103544.25;;;8.05;89.58
67697;BME280;54486;51.442;6.778;2023-02-13T09:17:13;103546.19;;;8.09;89.21
67697;BME280;54486;51.442;6.778;2023-02-13T09:19:44;103546.75;;;8.21;87.99
67697;BME280;54486;51.442;6.778;2023-02-13T09:22:12;103545.44;;;8.29;88.17
67697;BME280;54486;51.442;6.778;2023-02-13T09:24:42;103547.34;;;8.33;87.69
67697;BME280;54486;51.442;6.778;2023-02-13T09:27:09;103545.88;;;8.38;87.05
67697;BME280;54486;51.442;6.778;2023-02-13T09:29:37;103548.22;;;8.51;86.57
67697;BME280;54486;51.442;6.778;2023-02-13T09:32:04;103536.00;;;8.50;86.54
67697;BME280;54486;51.442;6.778;2023-02-13T09:34:31;103542.91;;;8.49;86.32
67697;BME280;54486;51.442;6.778;2023-02-13T09:36:58;103542.25;;;8.54;86.50
67697;BME280;54486;51.442;6.778;2023-02-13T09:39:25;103546.97;;;8.62;85.15
67697;BME280;54486;51.442;6.778;2023-02-13T09:41:52;103546.50;;;8.71;85.07
67697;BME280;54486;51.442;6.778;2023-02-13T09:44:30;103550.94;;;8.73;84.96
67697;BME280;54486;51.442;6.778;2023-02-13T09:47:03;103541.47;;;8.75;85.04
67697;BME280;54486;51.442;6.778;2023-02-13T09:49:32;103549.84;;;8.87;84.25
67697;BME280;54486;51.442;6.778;2023-02-13T09:52:01;103546.78;;;8.77;84.71
67697;BME280;54486;51.442;6.778;2023-02-13T09:54:28;103542.47;;;8.77;84.47
67697;BME280;54486;51.442;6.778;2023-02-13T10:02:37;103554.31;;;8.90;83.61
67697;BME280;54486;51.442;6.778;2023-02-13T10:05:17;103546.81;;;8.97;83.15
67697;BME280;54486;51.442;6.778;2023-02-13T10:07:51;103537.94;;;9.13;81.79
67697;BME280;54486;51.442;6.778;2023-02-13T10:10:33;103547.41;;;9.11;81.91
67697;BME280;54486;51.442;6.778;2023-02-13T10:16:08;103540.13;;;9.23;80.68
67697;BME280;54486;51.442;6.778;2023-02-13T10:18:28;103534.53;;;9.35;80.57
67697;BME280;54486;51.442;6.778;2023-02-13T10:21:01;103548.13;;;9.48;79.49
67697;BME280;54486;51.442;6.778;2023-02-13T10:28:29;103540.50;;;9.53;80.45
67697;BME280;54486;51.442;6.778;2023-02-13T10:31:04;103547.47;;;9.54;80.78
67697;BME280;54486;51.442;6.778;2023-02-13T10:33:55;103543.28;;;9.57;80.18
67697;BME280;54486;51.442;6.778;2023-02-13T10:36:27;103541.69;;;9.61;80.16
67697;BME280;54486;51.442;6.778;2023-02-13T10:39:00;103544.44;;;9.64;79.88
67697;BME280;54486;51.442;6.778;2023-02-13T10:52:07;103535.50;;;9.80;77.80
67697;BME280;54486;51.442;6.778;2023-02-13T10:54:51;103528.22;;;9.93;77.37
67697;BME280;54486;51.442;6.778;2023-02-13T10:57:41;103532.63;;;9.94;76.37
67697;BME280;54486;51.442;6.778;2023-02-13T11:00:19;103520.13;;;10.08;76.82
67697;BME280;54486;51.442;6.778;2023-02-13T11:02:48;103516.88;;;10.14;77.20
67697;BME280;54486;51.442;6.778;2023-02-13T11:05:17;103511.00;;;10.19;75.84
67697;BME280;54486;51.442;6.778;2023-02-13T11:07:45;103505.00;;;10.22;76.39
67697;BME280;54486;51.442;6.778;2023-02-13T11:10:16;103505.00;;;10.22;76.67
67697;BME280;54486;51.442;6.778;2023-02-13T11:12:44;103506.69;;;10.20;76.98
67697;BME280;54486;51.442;6.778;2023-02-13T11:15:24;103508.59;;;10.24;76.51
67697;BME280;54486;51.442;6.778;2023-02-13T11:17:52;103499.09;;;10.26;76.56
67697;BME280;54486;51.442;6.778;2023-02-13T11:22:49;103487.72;;;10.24;76.77
67697;BME280;54486;51.442;6.778;2023-02-13T11:25:17;103486.03;;;10.26;76.47
67697;BME280;54486;51.442;6.778;2023-02-13T11:27:46;103486.25;;;10.32;76.32
67697;BME280;54486;51.442;6.778;2023-02-13T11:33:26;103479.66;;;10.65;74.63
67697;BME280;54486;51.442;6.778;2023-02-13T11:35:43;103476.78;;;10.83;74.06
67697;BME280;54486;51.442;6.778;2023-02-13T11:40:37;103473.03;;;10.75;74.80
67697;BME280;54486;51.442;6.778;2023-02-13T11:43:04;103477.00;;;10.89;73.72
67697;BME280;54486;51.442;6.778;2023-02-13T11:45:32;103471.31;;;11.00;73.18
67697;BME280;54486;51.442;6.778;2023-02-13T11:47:59;103466.81;;;10.96;74.08
67697;BME280;54486;51.442;6.778;2023-02-13T11:50:27;103463.28;;;10.94;74.26
67697;BME280;54486;51.442;6.778;2023-02-13T11:53:00;103469.31;;;10.93;74.56
67697;BME280;54486;51.442;6.778;2023-02-13T11:55:30;103457.91;;;10.91;74.58
67697;BME280;54486;51.442;6.778;2023-02-13T11:58:04;103453.97;;;11.02;72.90
67697;BME280;54486;51.442;6.778;2023-02-13T12:00:47;103454.47;;;11.18;71.44
67697;BME280;54486;51.442;6.778;2023-02-13T12:08:28;103442.34;;;11.20;72.05
67697;BME280;54486;51.442;6.778;2023-02-13T12:10:55;103442.25;;;11.17;72.17
67697;BME280;54486;51.442;6.778;2023-02-13T12:13:27;103445.00;;;11.21;72.24
67697;BME280;54486;51.442;6.778;2023-02-13T12:16:44;103446.00;;;11.25;71.57
67697;BME280;54486;51.442;6.778;2023-02-13T12:18:45;103441.75;;;11.28;71.52
67697;BME280;54486;51.442;6.778;2023-02-13T12:21:21;103436.56;;;11.30;70.74
67697;BME280;54486;51.442;6.778;2023-02-13T12:24:02;103434.53;;;11.48;70.08
67697;BME280;54486;51.442;6.778;2023-02-13T12:26:43;103429.41;;;11.51;69.77
67697;BME280;54486;51.442;6.778;2023-02-13T12:32:03;103427.16;;;11.63;68.23
67697;BME280;54486;51.442;6.778;2023-02-13T12:39:57;103418.25;;;11.56;69.66
67697;BME280;54486;51.442;6.778;2023-02-13T12:42:35;103414.00;;;11.60;69.08
67697;BME280;54486;51.442;6.778;2023-02-13T12:47:36;103409.44;;;11.81;67.43
67697;BME280;54486;51.442;6.778;2023-02-13T12:50:12;103402.28;;;11.74;68.70
67697;BME280;54486;51.442;6.778;2023-02-13T12:58:00;103392.59;;;12.01;66.74
67697;BME280;54486;51.442;6.778;2023-02-13T13:03:34;103382.22;;;12.04;67.27
67697;BME280;54486;51.442;6.778;2023-02-13T13:28:42;103367.44;;;12.38;65.61
67697;BME280;54486;51.442;6.778;2023-02-13T13:31:11;103360.97;;;12.58;64.13
67697;BME280;54486;51.442;6.778;2023-02-13T13:33:39;103358.41;;;12.59;64.29
67697;BME280;54486;51.442;6.778;2023-02-13T13:41:16;103349.44;;;12.51;65.07
67697;BME280;54486;51.442;6.778;2023-02-13T13:43:57;103355.66;;;12.55;65.21
67697;BME280;54486;51.442;6.778;2023-02-13T13:51:40;103348.09;;;13.01;61.92
67697;BME280;54486;51.442;6.778;2023-02-13T13:59:24;103345.56;;;13.42;58.45
67697;BME280;54486;51.442;6.778;2023-02-13T14:02:25;103335.25;;;13.51;58.70
67697;BME280;54486;51.442;6.778;2023-02-13T14:07:25;103333.13;;;13.73;58.76
67697;BME280;54486;51.442;6.778;2023-02-13T14:09:58;103328.09;;;13.84;59.08
67697;BME280;54486;51.442;6.778;2023-02-13T14:14:56;103324.84;;;13.97;57.49
67697;BME280;54486;51.442;6.778;2023-02-13T14:23:51;103319.44;;;14.35;59.92
67697;BME280;54486;51.442;6.778;2023-02-13T14:26:12;103312.75;;;14.52;59.04
67697;BME280;54486;51.442;6.778;2023-02-13T14:31:18;103313.41;;;14.93;58.13
67697;BME280;54486;51.442;6.778;2023-02-13T14:34:34;103306.56;;;15.02;56.76
67697;BME280;54486;51.442;6.778;2023-02-13T14:36:36;103305.06;;;15.22;57.44
67697;BME280;54486;51.442;6.778;2023-02-13T14:41:43;103305.09;;;15.25;54.93
67697;BME280;54486;51.442;6.778;2023-02-13T14:44:18;103303.41;;;15.27;55.99
67697;BME280;54486;51.442;6.778;2023-02-13T14:46:49;103301.66;;;15.29;55.92
67697;BME280;54486;51.442;6.778;2023-02-13T14:49:27;103301.75;;;15.35;56.54
67697;BME280;54486;51.442;6.778;2023-02-13T14:51:58;103296.66;;;15.48;56.24
67697;BME280;54486;51.442;6.778;2023-02-13T14:54:36;103287.84;;;15.46;53.38
67697;BME280;54486;51.442;6.778;2023-02-13T14:59:35;103289.97;;;15.74;53.85
67697;BME280;54486;51.442;6.778;2023-02-13T15:02:22;103285.75;;;15.88;53.99
67697;BME280;54486;51.442;6.778;2023-02-13T15:07:25;103284.28;;;16.16;52.75
67697;BME280;54486;51.442;6.778;2023-02-13T15:09:59;103283.56;;;16.35;53.06
67697;BME280;54486;51.442;6.778;2023-02-13T15:12:32;103280.03;;;16.31;51.94
67697;BME280;54486;51.442;6.778;2023-02-13T15:15:01;103276.91;;;16.72;52.38
67697;BME280;54486;51.442;6.778;2023-02-13T15:17:32;103278.94;;;17.18;51.35
67697;BME280;54486;51.442;6.778;2023-02-13T15:22:45;103282.66;;;17.60;50.26
67697;BME280;54486;51.442;6.778;2023-02-13T15:25:21;103272.94;;;17.54;49.81
67697;BME280;54486;51.442;6.778;2023-02-13T15:27:52;103279.22;;;17.85;47.37
67697;BME280;54486;51.442;6.778;2023-02-13T15:30:31;103268.72;;;18.33;48.48
67697;BME280;54486;51.442;6.778;2023-02-13T15:33:01;103270.50;;;18.56;46.38
67697;BME280;54486;51.442;6.778;2023-02-13T15:35:34;103277.56;;;18.66;45.62
67697;BME280;54486;51.442;6.778;2023-02-13T15:40:49;103275.78;;;18.62;46.01
67697;BME280;54486;51.442;6.778;2023-02-13T15:43:20;103282.78;;;17.99;46.58
67697;BME280;54486;51.442;6.778;2023-02-13T15:45:48;103271.00;;;17.15;47.20
67697;BME280;54486;51.442;6.778;2023-02-13T15:48:15;103272.59;;;16.84;48.73
67697;BME280;54486;51.442;6.778;2023-02-13T15:50:43;103277.22;;;16.15;49.57
67697;BME280;54486;51.442;6.778;2023-02-13T15:53:14;103274.31;;;15.86;50.65
67697;BME280;54486;51.442;6.778;2023-02-13T15:55:50;103284.50;;;15.56;51.61
67697;BME280;54486;51.442;6.778;2023-02-13T15:58:20;103277.09;;;15.29;53.08
67697;BME280;54486;51.442;6.778;2023-02-13T16:00:52;103267.97;;;15.01;54.08